Time;durP1;ratioP1;P1;durP2;ratioP2;P2;SDS_P1;SDS_P2;PMS_P1;PMS_P2;Temp;Humidity;BMP_temperature;BMP_pressure;BME280_temperature;BME280_humidity;BME280_pressure;Samples;Min_cycle;Max_cycle;Signal;HPM_P1;HPM_P2
2021/07/07 00:01:26;;;;;;;0.20;0.20;;;14.60;94.40;;;17.96;80.47;101158.97;5007451;28;97258;-75
2021/07/07 00:03:55;;;;;;;0.10;0.10;;;14.60;94.40;;;17.95;80.76;101163.56;5002907;28;97282;-75
2021/07/07 00:06:23;;;;;;;0.22;0.22;;;14.60;94.40;;;17.91;80.62;101170.03;5037471;27;96870;-75
2021/07/07 00:08:52;;;;;;;0.05;0.05;;;14.60;94.40;;;17.94;80.75;101175.56;5006835;28;97180;-75
2021/07/07 00:11:21;;;;;;;0.00;0.00;;;14.60;94.40;;;17.97;80.73;101177.59;5009693;28;96819;-75
2021/07/07 00:13:51;;;;;;;0.00;0.00;;;14.60;94.40;;;18.00;80.47;101176.91;5008933;28;96857;-76
2021/07/07 00:16:21;;;;;;;0.10;0.10;;;14.60;94.40;;;17.97;80.24;101183.00;5022540;27;97356;-75
2021/07/07 00:18:49;;;;;;;0.25;0.25;;;14.60;94.40;;;17.94;80.16;101180.97;5011736;28;97046;-75
2021/07/07 00:21:18;;;;;;;0.00;0.00;;;14.50;94.40;;;17.93;80.58;101176.69;5004339;28;96824;-75
2021/07/07 00:23:47;;;;;;;0.00;0.00;;;14.50;94.40;;;17.90;80.51;101180.06;5003890;28;97467;-75
2021/07/07 00:26:16;;;;;;;0.03;0.03;;;14.50;94.40;;;17.96;80.20;101181.44;5011320;28;97102;-76
2021/07/07 00:28:45;;;;;;;0.35;0.35;;;14.50;94.40;;;17.95;79.92;101177.13;5007673;28;97018;-76
2021/07/07 00:31:15;;;;;;;1.20;0.30;;;14.50;94.40;;;17.98;79.57;101181.88;5008358;28;96915;-75
2021/07/07 00:33:44;;;;;;;0.20;0.20;;;14.50;94.40;;;17.88;80.05;101173.44;5005948;28;97736;-76
2021/07/07 00:36:13;;;;;;;0.00;0.00;;;14.50;94.30;;;17.82;80.28;101170.16;5006603;28;98150;-76
2021/07/07 00:38:42;;;;;;;0.00;0.00;;;14.50;94.30;;;17.86;79.53;101175.66;5006598;28;96841;-75
2021/07/07 00:41:10;;;;;;;0.85;0.30;;;14.40;94.30;;;17.85;80.54;101179.50;4986270;28;98596;-76
2021/07/07 00:43:41;;;;;;;0.38;0.38;;;14.40;94.30;;;17.82;79.77;101174.75;5003741;28;97799;-76
2021/07/07 00:46:09;;;;;;;1.95;0.40;;;14.40;94.40;;;17.83;79.99;101174.44;4985537;28;96838;-76
2021/07/07 00:48:39;;;;;;;0.10;0.10;;;14.40;94.40;;;17.82;79.55;101175.56;5006016;28;97032;-76
2021/07/07 00:51:08;;;;;;;0.10;0.10;;;14.40;94.30;;;17.86;79.34;101181.88;5036991;27;98249;-76
2021/07/07 00:53:41;;;;;;;0.17;0.17;;;14.30;94.30;;;17.84;79.40;101178.72;5005231;28;97671;-76
2021/07/07 00:56:11;;;;;;;0.05;0.05;;;14.30;94.30;;;17.89;79.28;101180.44;5003037;28;96888;-76
2021/07/07 00:58:42;;;;;;;0.10;0.10;;;14.30;94.30;;;17.83;79.44;101187.19;5007985;28;97308;-76
2021/07/07 01:01:11;;;;;;;0.13;0.13;;;14.30;94.40;;;17.82;79.25;101180.19;5021276;27;97708;-76
2021/07/07 01:03:41;;;;;;;0.20;0.20;;;14.20;94.30;;;17.72;79.36;101176.03;5008172;28;97068;-76
2021/07/07 01:06:10;;;;;;;0.00;0.00;;;14.20;94.30;;;17.73;79.36;101177.59;5006186;28;96769;-76
2021/07/07 01:08:38;;;;;;;0.15;0.15;;;14.20;94.30;;;17.64;79.40;101179.59;5006745;28;97254;-76
2021/07/07 01:11:07;;;;;;;0.00;0.00;;;14.20;94.30;;;17.63;79.81;101169.91;5007444;28;97728;-76
2021/07/07 01:13:38;;;;;;;0.10;0.10;;;14.20;94.30;;;17.58;79.94;101180.19;5008763;28;97662;-76
2021/07/07 01:16:09;;;;;;;0.00;0.00;;;14.10;94.30;;;17.59;79.64;101173.66;5004942;28;96748;-76
2021/07/07 01:18:38;;;;;;;1.38;0.80;;;14.10;94.30;;;17.60;80.03;101177.94;5006336;28;97069;-76
2021/07/07 01:21:08;;;;;;;0.22;0.17;;;14.10;94.50;;;17.62;79.68;101178.38;5005519;28;97161;-76
2021/07/07 01:23:39;;;;;;;0.40;0.40;;;14.10;94.40;;;17.51;79.65;101178.03;5025022;27;97780;-76
2021/07/07 01:26:08;;;;;;;0.10;0.10;;;14.10;94.30;;;17.53;79.45;101177.69;5029504;27;96846;-75
2021/07/07 01:28:37;;;;;;;0.10;0.10;;;14.10;94.30;;;17.51;79.71;101183.44;5006785;28;96977;-75
2021/07/07 01:31:07;;;;;;;0.20;0.20;;;14.00;94.30;;;17.55;79.76;101178.94;5003811;28;98112;-76
2021/07/07 01:33:36;;;;;;;0.10;0.10;;;14.00;94.30;;;17.56;79.23;101175.09;4982888;28;97950;-76
2021/07/07 01:36:05;;;;;;;0.52;0.52;;;14.00;94.30;;;17.51;79.28;101172.59;5001070;28;96769;-75
2021/07/07 01:38:34;;;;;;;0.40;0.35;;;14.00;94.40;;;17.49;79.52;101172.16;5025105;27;97461;-76
2021/07/07 01:41:06;;;;;;;0.28;0.28;;;14.00;94.40;;;17.42;79.96;101169.22;5005239;28;97307;-76
2021/07/07 01:43:35;;;;;;;0.10;0.10;;;13.90;94.40;;;17.45;79.57;101165.03;5004158;28;97714;-75
2021/07/07 01:46:04;;;;;;;0.20;0.20;;;13.90;94.40;;;17.52;79.77;101160.63;5002903;28;96925;-75
2021/07/07 01:48:32;;;;;;;0.30;0.30;;;13.90;94.40;;;17.43;79.27;101162.66;4989519;28;97684;-76
2021/07/07 01:51:03;;;;;;;0.38;0.30;;;13.90;94.40;;;17.45;79.92;101173.97;5007878;28;97531;-75
2021/07/07 01:53:32;;;;;;;6.00;2.17;;;13.90;94.50;;;17.47;79.55;101162.78;5004161;28;97776;-75
2021/07/07 01:56:00;;;;;;;0.20;0.20;;;13.90;94.50;;;17.47;79.11;101174.41;5001238;28;96950;-76
2021/07/07 01:58:36;;;;;;;0.20;0.15;;;13.90;94.40;;;17.38;79.92;101175.63;5006416;28;96727;-76
2021/07/07 02:01:06;;;;;;;0.00;0.00;;;13.90;94.40;;;17.30;80.58;101179.97;5021067;28;97797;-76
2021/07/07 02:03:35;;;;;;;0.10;0.10;;;13.90;94.50;;;17.29;80.07;101177.63;5001588;28;96858;-77
2021/07/07 02:06:05;;;;;;;0.00;0.00;;;13.80;94.40;;;17.26;79.98;101172.06;5006092;28;97087;-76
2021/07/07 02:08:34;;;;;;;1.58;0.30;;;13.80;94.50;;;17.29;80.36;101181.09;5003690;28;96741;-76
2021/07/07 02:11:04;;;;;;;0.00;0.00;;;13.80;94.50;;;17.23;79.96;101175.44;5000828;28;98604;-76
2021/07/07 02:13:33;;;;;;;0.47;0.47;;;13.80;94.50;;;17.23;80.35;101181.66;5000033;28;97889;-76
2021/07/07 02:16:05;;;;;;;0.00;0.00;;;13.80;94.50;;;17.22;80.43;101192.81;5002995;28;97344;-76
2021/07/07 02:18:34;;;;;;;0.45;0.45;;;13.80;94.50;;;17.17;80.17;101191.13;5003288;28;96925;-76
2021/07/07 02:21:05;;;;;;;0.10;0.10;;;13.80;94.50;;;17.20;80.02;101195.09;5000757;28;98020;-76
2021/07/07 02:23:34;;;;;;;0.20;0.20;;;13.80;94.50;;;17.16;80.53;101189.53;4999347;28;96838;-76
2021/07/07 02:26:05;;;;;;;0.20;0.20;;;13.80;94.50;;;17.20;80.10;101192.38;5006326;28;97579;-76
2021/07/07 02:28:34;;;;;;;0.00;0.00;;;13.80;94.50;;;17.22;79.94;101192.81;5006326;28;97137;-76
2021/07/07 02:31:08;;;;;;;0.55;0.45;;;13.80;94.60;;;17.26;79.91;101185.63;5002205;28;97129;-76
2021/07/07 02:33:37;;;;;;;0.13;0.13;;;13.80;94.60;;;17.24;80.51;101185.16;5035097;27;96869;-76
2021/07/07 02:36:09;;;;;;;0.20;0.20;;;13.80;94.60;;;17.26;80.24;101180.19;5006833;28;98171;-76
2021/07/07 02:38:38;;;;;;;0.10;0.10;;;13.80;94.60;;;17.25;79.91;101181.31;5007574;28;96980;-76
2021/07/07 02:41:07;;;;;;;0.52;0.50;;;13.80;94.60;;;17.32;79.93;101177.72;5005872;28;96942;-76
2021/07/07 02:43:36;;;;;;;0.10;0.10;;;13.80;94.60;;;17.32;79.61;101180.44;5004612;28;97795;-75
2021/07/07 02:46:07;;;;;;;0.10;0.10;;;13.80;94.60;;;17.28;79.70;101178.75;5003453;28;97371;-76
2021/07/07 02:48:36;;;;;;;0.00;0.00;;;13.80;94.60;;;17.33;80.18;101181.28;5004449;28;96775;-76
2021/07/07 02:51:05;;;;;;;0.10;0.10;;;13.80;94.60;;;17.31;79.34;101181.56;5005367;28;97892;-76
2021/07/07 02:53:34;;;;;;;0.13;0.13;;;13.80;94.60;;;17.25;79.68;101182.09;5029897;27;97671;-76
2021/07/07 02:56:06;;;;;;;0.08;0.08;;;13.80;94.60;;;17.22;80.18;101182.00;5003079;28;96876;-75
2021/07/07 02:58:35;;;;;;;0.00;0.00;;;13.80;94.60;;;17.25;80.12;101184.81;5000973;28;97138;-76
2021/07/07 03:01:08;;;;;;;0.90;0.38;;;13.80;94.60;;;17.24;80.18;101198.69;5001484;28;97090;-76
2021/07/07 03:03:37;;;;;;;0.10;0.10;;;13.80;94.60;;;17.26;80.16;101204.56;5002545;28;97723;-76
2021/07/07 03:06:06;;;;;;;0.00;0.00;;;13.80;94.60;;;17.29;79.71;101205.47;5002860;28;98833;-75
2021/07/07 03:08:40;;;;;;;0.10;0.10;;;13.80;94.60;;;17.27;79.64;101189.91;5006282;28;97046;-76
2021/07/07 03:11:09;;;;;;;0.25;0.20;;;13.80;94.60;;;17.28;79.75;101193.06;5026794;27;98078;-75
2021/07/07 03:13:38;;;;;;;1.10;1.00;;;13.80;94.60;;;17.24;79.58;101201.41;5008048;28;97418;-76
2021/07/07 03:16:08;;;;;;;0.28;0.28;;;13.80;94.50;;;17.24;80.50;101204.13;5006656;28;97095;-76
2021/07/07 03:18:37;;;;;;;0.65;0.65;;;13.80;94.50;;;17.24;80.58;101204.13;5006270;28;96966;-75
2021/07/07 03:21:06;;;;;;;0.25;0.25;;;13.80;94.60;;;17.19;80.76;101205.09;5006928;28;98094;-76
2021/07/07 03:23:34;;;;;;;0.17;0.17;;;13.80;94.60;;;17.20;79.71;101200.50;5007836;28;97755;-76
2021/07/07 03:26:05;;;;;;;0.52;0.52;;;13.80;94.80;;;17.28;79.47;101195.78;5007198;28;96745;-76
2021/07/07 03:28:34;;;;;;;0.08;0.08;;;13.80;94.60;;;17.30;79.79;101212.47;5008213;28;96945;-75
2021/07/07 03:31:05;;;;;;;0.10;0.10;;;13.80;94.60;;;17.32;80.16;101204.81;5009297;28;98120;-75
2021/07/07 03:33:35;;;;;;;0.13;0.10;;;13.80;94.60;;;17.34;79.88;101223.47;5004073;28;97958;-76
2021/07/07 03:36:05;;;;;;;0.10;0.10;;;13.80;94.60;;;17.38;79.61;101225.16;5007537;28;96896;-76
2021/07/07 03:38:33;;;;;;;0.00;0.00;;;13.80;94.60;;;17.37;80.32;101223.59;5009530;28;96998;-75
2021/07/07 03:41:04;;;;;;;0.10;0.10;;;13.80;94.60;;;17.39;79.51;101234.88;5008790;28;97347;-76
2021/07/07 03:43:33;;;;;;;2.17;1.55;;;13.80;94.60;;;17.40;79.62;101233.75;4989900;28;97772;-75
2021/07/07 03:46:04;;;;;;;0.47;0.40;;;13.90;94.70;;;17.46;79.79;101237.84;4987727;28;96973;-76
2021/07/07 03:48:35;;;;;;;0.32;0.32;;;13.90;94.60;;;17.45;79.56;101247.13;5004141;28;96836;-75
2021/07/07 03:51:05;;;;;;;0.17;0.17;;;13.90;94.60;;;17.50;80.13;101249.59;5006094;28;99527;-76
2021/07/07 03:53:34;;;;;;;0.10;0.10;;;13.90;94.70;;;17.47;80.16;101242.16;5005471;28;98288;-76
2021/07/07 03:56:03;;;;;;;0.43;0.43;;;14.00;94.70;;;17.51;80.08;101248.47;5004411;28;97154;-75
2021/07/07 03:58:32;;;;;;;0.55;0.55;;;14.00;94.70;;;17.59;79.91;101247.59;5006103;28;96957;-75
2021/07/07 04:01:01;;;;;;;0.08;0.08;;;14.00;94.70;;;17.74;79.97;101246.94;4990150;28;96938;-75
2021/07/07 04:03:34;;;;;;;0.28;0.10;;;14.10;94.70;;;17.76;79.80;101243.88;5020641;27;97749;-75
2021/07/07 04:06:05;;;;;;;0.52;0.32;;;14.20;94.80;;;17.95;79.42;101246.84;5007725;28;96958;-75
2021/07/07 04:08:34;;;;;;;0.00;0.00;;;14.20;94.70;;;18.04;79.76;101250.25;5005513;28;96822;-75
2021/07/07 04:11:03;;;;;;;0.00;0.00;;;14.30;94.70;;;18.21;79.28;101256.22;4990322;28;96867;-76
2021/07/07 04:13:33;;;;;;;0.50;0.50;;;14.40;94.80;;;18.40;79.29;101252.97;5009036;28;97648;-76
2021/07/07 04:16:04;;;;;;;0.40;0.30;;;14.50;94.80;;;18.60;79.49;101258.25;4988834;28;97502;-76
2021/07/07 04:18:34;;;;;;;0.10;0.10;;;14.60;94.70;;;18.78;78.77;101259.59;5002731;28;96956;-76
2021/07/07 04:21:05;;;;;;;0.20;0.20;;;14.70;94.60;;;18.92;78.99;101263.50;5009071;28;98290;-76
2021/07/07 04:23:34;;;;;;;0.22;0.22;;;14.80;94.60;;;18.93;79.55;101264.31;5025668;27;96748;-75
2021/07/07 04:26:04;;;;;;;0.40;0.32;;;14.90;94.60;;;18.91;79.90;101271.22;5006618;28;96819;-76
2021/07/07 04:28:33;;;;;;;0.20;0.20;;;14.90;94.60;;;18.94;79.48;101268.59;5007031;28;97496;-76
2021/07/07 04:31:04;;;;;;;0.00;0.00;;;15.00;94.60;;;19.00;79.64;101265.28;5006746;28;97145;-76
2021/07/07 04:33:34;;;;;;;0.50;0.50;;;15.00;94.70;;;19.02;79.74;101268.44;5023915;27;97612;-75
2021/07/07 04:36:05;;;;;;;0.22;0.22;;;15.10;94.70;;;19.11;79.54;101273.75;5001431;28;97038;-76
2021/07/07 04:38:34;;;;;;;0.00;0.00;;;15.20;94.70;;;19.21;79.64;101275.97;5012277;28;96870;-76
2021/07/07 04:41:04;;;;;;;0.00;0.00;;;15.20;94.70;;;19.26;79.99;101273.03;4987224;28;96978;-76
2021/07/07 04:43:33;;;;;;;0.10;0.10;;;15.30;94.70;;;19.35;80.14;101270.97;5006599;28;96965;-76
2021/07/07 04:46:04;;;;;;;0.17;0.17;;;15.40;94.70;;;19.47;79.18;101279.03;5001209;28;97074;-76
2021/07/07 04:48:34;;;;;;;0.85;0.57;;;15.40;94.70;;;19.65;79.66;101275.66;5009524;28;96785;-75
2021/07/07 04:51:06;;;;;;;0.52;0.20;;;15.50;94.70;;;19.80;78.58;101279.53;5007473;28;97855;-76
2021/07/07 04:53:34;;;;;;;0.10;0.10;;;15.70;94.70;;;19.96;78.79;101283.06;4989292;28;97722;-75
2021/07/07 04:56:06;;;;;;;0.40;0.40;;;15.80;94.60;;;20.15;78.09;101281.25;5001707;28;97258;-76
2021/07/07 04:58:35;;;;;;;0.30;0.15;;;15.90;94.40;;;20.15;77.87;101283.97;5006522;28;98693;-76
2021/07/07 05:01:07;;;;;;;1.05;0.40;;;16.10;94.20;;;20.08;77.94;101280.28;5005305;28;97336;-76
2021/07/07 05:03:38;;;;;;;0.15;0.15;;;16.10;94.20;;;19.97;78.44;101274.56;5006200;28;96894;-76
2021/07/07 05:06:07;;;;;;;0.35;0.35;;;16.10;94.20;;;20.07;78.14;101278.69;5006126;28;97298;-76
2021/07/07 05:08:36;;;;;;;0.22;0.22;;;16.10;94.20;;;20.17;78.10;101278.19;4991230;28;97388;-76
2021/07/07 05:11:05;;;;;;;0.30;0.30;;;16.20;94.30;;;20.47;77.63;101276.56;4988486;28;96899;-76
2021/07/07 05:13:35;;;;;;;0.10;0.10;;;16.30;94.30;;;20.93;76.63;101271.00;5001785;28;97812;-76
2021/07/07 05:16:06;;;;;;;0.25;0.25;;;16.50;94.30;;;21.80;74.71;101274.69;5024937;27;97274;-76
2021/07/07 05:18:36;;;;;;;0.00;0.00;;;16.90;94.00;;;22.43;72.87;101271.88;5020278;28;96900;-76
2021/07/07 05:21:05;;;;;;;0.15;0.10;;;17.40;93.40;;;22.62;72.68;101265.50;5005342;28;97976;-76
2021/07/07 05:23:34;;;;;;;0.00;0.00;;;17.80;92.90;;;22.72;72.98;101271.13;5000622;28;97013;-76
2021/07/07 05:26:05;;;;;;;0.40;0.40;;;18.00;92.60;;;22.69;73.65;101265.59;5009180;28;97336;-76
2021/07/07 05:28:34;;;;;;;0.10;0.10;;;18.20;92.50;;;22.66;74.28;101269.06;5006683;28;96972;-76
2021/07/07 05:31:06;;;;;;;0.30;0.30;;;18.30;92.50;;;22.60;74.82;101271.31;5005305;28;96790;-76
2021/07/07 05:33:38;;;;;;;0.57;0.40;;;18.30;92.60;;;22.53;75.67;101273.19;5002497;28;96793;-76
2021/07/07 05:36:10;;;;;;;0.00;0.00;;;18.30;92.70;;;22.50;75.64;101268.44;5007428;28;97293;-76
2021/07/07 05:38:39;;;;;;;1.45;0.60;;;18.30;92.80;;;22.68;75.51;101272.22;5006340;28;97009;-76
2021/07/07 05:41:10;;;;;;;0.10;0.10;;;18.40;92.90;;;22.98;74.57;101273.00;4987585;28;96920;-76
2021/07/07 05:43:40;;;;;;;0.50;0.15;;;18.60;92.90;;;23.19;74.35;101270.56;5007713;28;97077;-76
2021/07/07 05:46:08;;;;;;;0.10;0.10;;;18.80;92.70;;;23.43;73.97;101278.28;5006534;28;97047;-75
2021/07/07 05:48:39;;;;;;;0.80;0.15;;;19.00;92.60;;;23.71;73.79;101273.88;5003877;28;97923;-77
2021/07/07 05:51:08;;;;;;;0.30;0.30;;;19.20;92.40;;;23.91;72.85;101277.19;5005018;28;99980;-76
2021/07/07 05:53:38;;;;;;;0.05;0.05;;;19.40;92.20;;;23.98;72.86;101281.56;5007260;28;97859;-76
2021/07/07 05:56:07;;;;;;;0.13;0.13;;;19.50;92.10;;;24.29;72.12;101283.78;5020731;28;97297;-76
2021/07/07 05:58:36;;;;;;;0.22;0.22;;;19.70;91.90;;;24.05;73.33;101278.91;5002962;28;96768;-76
2021/07/07 06:01:05;;;;;;;0.43;0.43;;;19.80;91.80;;;23.93;74.11;101281.16;4999784;28;98057;-75
2021/07/07 06:03:34;;;;;;;1.90;0.55;;;19.70;92.00;;;23.89;74.36;101285.00;5001651;28;97708;-75
2021/07/07 06:06:06;;;;;;;0.43;0.25;;;19.70;92.10;;;23.88;74.57;101281.50;5005121;28;97718;-75
2021/07/07 06:08:35;;;;;;;0.38;0.38;;;19.70;92.30;;;23.74;75.84;101295.00;5004344;28;96832;-75
2021/07/07 06:11:07;;;;;;;0.10;0.10;;;19.70;92.40;;;23.74;75.25;101291.50;5001270;28;97964;-76
2021/07/07 06:13:36;;;;;;;0.57;0.57;;;19.70;92.50;;;23.89;75.16;101301.44;5002315;28;96956;-75
2021/07/07 06:16:07;;;;;;;0.15;0.15;;;19.70;92.50;;;24.09;74.24;101295.34;5034526;27;96999;-75
2021/07/07 06:18:36;;;;;;;0.17;0.17;;;19.70;92.60;;;24.14;74.70;101298.53;5001144;28;99655;-75
2021/07/07 06:21:08;;;;;;;0.20;0.20;;;19.80;92.60;;;24.33;74.44;101303.78;5003021;28;97443;-75
2021/07/07 06:23:37;;;;;;;0.40;0.38;;;19.90;92.70;;;24.52;73.86;101309.03;5024494;27;97791;-75
2021/07/07 06:26:06;;;;;;;0.55;0.55;;;20.00;92.40;;;24.48;73.98;101301.94;5003433;28;97108;-75
2021/07/07 06:28:35;;;;;;;8.27;0.43;;;20.10;92.30;;;24.82;73.24;101306.88;5022741;27;97041;-75
2021/07/07 06:31:04;;;;;;;0.10;0.10;;;20.10;92.20;;;25.19;72.29;101317.66;5000223;28;97822;-74
2021/07/07 06:33:34;;;;;;;7.43;0.68;;;20.30;92.10;;;25.54;70.78;101321.31;5026259;27;97069;-74
2021/07/07 06:36:09;;;;;;;4.70;0.60;;;20.60;91.90;;;26.14;69.22;101323.00;5022510;27;97064;-75
2021/07/07 06:38:38;;;;;;;3.42;1.33;;;21.00;91.40;;;25.98;69.77;101313.59;5021299;27;97119;-75
2021/07/07 06:41:07;;;;;;;0.38;0.20;;;21.20;91.00;;;26.02;70.12;101312.41;5011946;28;97759;-76
2021/07/07 06:43:36;;;;;;;4.50;0.40;;;21.30;90.90;;;25.72;71.04;101320.19;5002138;28;98524;-74
2021/07/07 06:46:04;;;;;;;2.90;0.70;;;21.30;90.90;;;25.46;72.67;101322.47;5001507;28;96808;-74
2021/07/07 06:48:33;;;;;;;3.58;0.40;;;21.20;91.10;;;25.11;73.07;101322.28;5005567;28;97059;-78
2021/07/07 06:51:04;;;;;;;0.45;0.35;;;21.00;91.00;;;24.75;73.88;101323.28;5005876;28;97491;-77
2021/07/07 06:53:36;;;;;;;0.73;0.57;;;20.80;91.30;;;24.47;74.65;101325.00;5007479;28;97047;-77
2021/07/07 06:56:05;;;;;;;2.33;0.65;;;20.60;91.60;;;24.40;74.70;101324.94;5007494;28;96950;-76
2021/07/07 06:58:34;;;;;;;0.30;0.30;;;20.40;92.00;;;24.13;75.18;101329.03;5007600;28;97722;-76
2021/07/07 07:01:05;;;;;;;0.10;0.10;;;20.20;92.20;;;24.08;75.82;101332.91;5007079;28;96894;-76
2021/07/07 07:03:34;;;;;;;0.35;0.35;;;20.10;92.50;;;24.07;75.63;101331.34;5011957;28;97925;-77
2021/07/07 07:06:04;;;;;;;0.10;0.10;;;20.00;92.70;;;24.17;75.24;101333.38;4993813;28;97320;-79
2021/07/07 07:08:34;;;;;;;0.35;0.35;;;20.00;92.80;;;24.15;75.50;101340.38;5008948;28;97289;-78
2021/07/07 07:11:05;;;;;;;0.03;0.03;;;19.90;92.90;;;24.08;75.94;101332.91;5008304;28;97169;-77
2021/07/07 07:13:34;;;;;;;1.70;0.55;;;19.90;92.90;;;24.05;75.82;101344.63;5026851;27;97686;-78
2021/07/07 07:16:06;;;;;;;2.20;0.65;;;19.90;92.90;;;23.92;75.70;101343.31;5006193;28;98403;-78
2021/07/07 07:18:35;;;;;;;0.00;0.00;;;19.90;92.80;;;23.98;75.67;101343.75;4989387;28;96912;-78
2021/07/07 07:21:06;;;;;;;0.15;0.15;;;19.90;92.70;;;24.04;75.52;101347.72;5006566;28;98013;-78
2021/07/07 07:23:36;;;;;;;0.15;0.15;;;19.90;92.70;;;24.15;75.41;101335.72;4990433;28;97770;-78
2021/07/07 07:26:07;;;;;;;0.20;0.20;;;19.90;92.80;;;24.31;74.93;101349.16;5009067;28;97229;-78
2021/07/07 07:28:37;;;;;;;0.37;0.30;;;20.00;92.80;;;24.43;75.16;101351.59;4976381;28;97180;-78
2021/07/07 07:31:20;;;;;;;0.90;0.50;;;20.10;92.70;;;24.51;74.26;101350.53;5025870;27;98226;-78
2021/07/07 07:33:50;;;;;;;1.13;0.98;;;20.10;92.60;;;24.66;74.48;101357.66;5010763;28;99157;-77
2021/07/07 07:36:27;;;;;;;0.22;0.22;;;20.20;92.40;;;24.68;74.19;101364.34;5006652;28;96839;-77
2021/07/07 07:39:04;;;;;;;0.40;0.40;;;20.30;92.40;;;24.89;73.77;101359.00;5013035;28;96936;-76
2021/07/07 07:41:38;;;;;;;0.13;0.13;;;20.40;92.50;;;24.97;73.56;101366.13;5008851;28;96924;-79
2021/07/07 07:44:08;;;;;;;0.65;0.35;;;20.50;92.40;;;24.98;73.28;101372.38;5008021;28;98047;-77
2021/07/07 07:46:38;;;;;;;0.73;0.17;;;20.50;92.20;;;24.97;73.64;101363.38;5027142;27;97314;-78
2021/07/07 07:49:10;;;;;;;6.07;1.98;;;20.60;92.30;;;25.11;74.03;101374.41;5024789;27;101431;-79
2021/07/07 07:51:39;;;;;;;5.82;2.13;;;20.70;92.30;;;25.16;73.46;101379.53;5011511;28;97191;-78
2021/07/07 07:54:10;;;;;;;0.20;0.20;;;20.80;92.20;;;25.05;74.38;101378.69;5008165;28;96959;-78
2021/07/07 07:56:39;;;;;;;0.35;0.35;;;20.90;92.00;;;25.25;73.76;101380.00;5007313;28;97925;-77
2021/07/07 07:59:07;;;;;;;0.55;0.40;;;21.00;92.00;;;25.46;73.30;101385.59;4987561;28;97168;-77
2021/07/07 08:01:36;;;;;;;1.23;0.85;;;21.00;92.00;;;25.65;72.54;101380.56;4994583;28;98069;-78
2021/07/07 08:04:06;;;;;;;0.10;0.10;;;21.20;91.90;;;25.93;71.66;101372.41;5014623;28;96833;-79
2021/07/07 08:06:35;;;;;;;2.10;0.47;;;21.30;91.70;;;26.52;70.50;101387.44;5007384;28;97192;-78
2021/07/07 08:09:05;;;;;;;0.22;0.22;;;21.50;91.60;;;27.21;68.58;101385.78;5028696;27;96931;-78
2021/07/07 08:11:36;;;;;;;0.52;0.52;;;21.80;91.20;;;27.75;67.10;101378.50;4991132;28;97883;-78
2021/07/07 08:14:06;;;;;;;0.22;0.10;;;22.30;90.70;;;28.29;65.70;101380.53;5005758;28;97663;-79
2021/07/07 08:16:40;;;;;;;0.00;0.00;;;22.70;90.10;;;29.03;64.33;101377.91;5007534;28;96925;-79
2021/07/07 08:19:08;;;;;;;2.40;1.58;;;23.10;90.00;;;29.83;62.17;101365.84;5010007;28;96954;-78
2021/07/07 08:21:37;;;;;;;0.00;0.00;;;23.60;88.30;;;29.96;62.27;101369.63;5007334;28;97961;-78
2021/07/07 08:24:07;;;;;;;0.22;0.17;;;24.00;87.10;;;30.31;61.70;101371.06;5038184;27;97209;-78
2021/07/07 08:26:37;;;;;;;12.63;0.50;;;24.30;86.30;;;30.70;61.14;101369.25;5009680;28;96749;-78
2021/07/07 08:29:07;;;;;;;1.40;0.50;;;24.70;85.80;;;32.18;57.42;101373.31;5007751;28;97163;-78
2021/07/07 08:31:35;;;;;;;7.00;0.82;;;25.30;84.90;;;32.15;57.89;101374.94;4992957;28;96780;-79
2021/07/07 08:34:05;;;;;;;0.00;0.00;;;25.70;83.30;;;35.08;49.92;101374.50;5040717;27;97630;-76
2021/07/07 08:36:34;;;;;;;2.78;0.43;;;26.20;82.40;;;37.99;43.03;101367.31;5002783;28;98290;-76
2021/07/07 08:39:06;;;;;;;0.65;0.30;;;27.10;80.70;;;41.32;37.56;101362.22;5006801;28;96954;-77
2021/07/07 08:41:39;;;;;;;0.17;0.13;;;28.30;78.00;;;42.60;36.20;101370.28;5012656;28;97848;-77
2021/07/07 08:44:08;;;;;;;0.20;0.20;;;29.50;76.50;;;43.46;35.37;101366.13;5006593;28;97471;-77
2021/07/07 08:46:38;;;;;;;0.00;0.00;;;30.40;75.10;;;44.13;35.23;101358.38;5008166;28;97401;-77
2021/07/07 08:49:07;;;;;;;0.20;0.20;;;31.30;74.80;;;44.70;35.64;101366.88;5008349;28;98327;-77
2021/07/07 08:51:41;;;;;;;0.25;0.17;;;32.00;74.40;;;45.24;35.19;101371.50;5008655;28;96954;-78
2021/07/07 08:54:11;;;;;;;0.35;0.32;;;32.70;73.80;;;45.25;35.89;101367.38;5009423;28;97098;-77
2021/07/07 08:56:42;;;;;;;1.73;0.88;;;33.20;72.70;;;45.19;36.45;101364.56;5000792;28;96867;-79
2021/07/07 08:59:14;;;;;;;0.93;0.13;;;33.50;72.50;;;45.38;37.06;101370.34;5000312;28;97434;-79
2021/07/07 09:02:09;;;;;;;0.25;0.13;;;33.70;73.10;;;45.56;37.32;101359.13;5020996;28;97873;-80
2021/07/07 09:04:41;;;;;;;0.25;0.10;;;34.00;73.10;;;45.93;37.86;101347.22;5029804;28;98922;-79
2021/07/07 09:07:12;;;;;;;0.98;0.52;;;34.30;74.00;;;45.60;38.99;101350.34;5015436;28;96834;-78
2021/07/07 09:09:44;;;;;;;0.10;0.10;;;34.40;73.80;;;45.46;39.73;101369.25;5005303;28;96877;-79
2021/07/07 09:12:20;;;;;;;0.40;0.40;;;34.60;74.00;;;45.32;39.96;101361.13;5004131;28;96919;-74
2021/07/07 09:14:53;;;;;;;0.57;0.22;;;34.60;74.10;;;45.14;41.00;101362.56;5005020;28;97331;-76
2021/07/07 09:17:22;;;;;;;0.20;0.10;;;34.50;74.80;;;44.79;41.26;101360.97;5006980;28;96978;-79
2021/07/07 09:19:51;;;;;;;0.75;0.20;;;34.50;74.50;;;44.34;41.89;101366.03;5035093;27;96855;-79
2021/07/07 09:22:27;;;;;;;0.08;0.08;;;34.30;74.80;;;44.33;42.34;101358.81;5021069;28;98139;-78
2021/07/07 09:25:03;;;;;;;0.10;0.10;;;34.20;75.70;;;44.26;43.03;101350.09;5009702;28;97082;-78
2021/07/07 09:27:39;;;;;;;0.00;0.00;;;34.10;76.40;;;44.15;43.57;101353.75;5003100;28;96709;-75
2021/07/07 09:30:13;;;;;;;5.47;0.70;;;34.00;76.70;;;44.02;44.08;101349.94;5004607;28;97078;-77
2021/07/07 09:32:46;;;;;;;0.20;0.20;;;34.00;77.90;;;44.17;43.99;101356.06;5005874;28;98048;-78
2021/07/07 09:35:20;;;;;;;0.47;0.05;;;34.00;78.30;;;44.16;44.20;101363.75;5008083;28;96942;-78
2021/07/07 09:37:53;;;;;;;0.13;0.13;;;34.10;78.70;;;44.17;44.57;101351.16;5008054;28;96905;-78
2021/07/07 09:40:24;;;;;;;0.00;0.00;;;34.20;78.30;;;43.70;44.74;101355.13;5007841;28;97048;-77
2021/07/07 09:42:54;;;;;;;1.50;0.43;;;34.10;78.30;;;43.33;46.71;101353.81;5006742;28;96915;-76
2021/07/07 09:45:24;;;;;;;0.20;0.10;;;34.00;79.10;;;43.06;46.45;101368.63;5005155;28;96998;-76
2021/07/07 09:47:52;;;;;;;0.10;0.10;;;33.90;78.50;;;42.32;47.90;101358.84;5023371;27;98065;-75
2021/07/07 09:50:23;;;;;;;0.38;0.28;;;33.70;78.60;;;42.03;47.73;101359.19;5000592;28;97396;-76
2021/07/07 09:52:56;;;;;;;0.25;0.17;;;33.50;78.90;;;41.89;49.11;101362.94;5005842;28;97029;-74
2021/07/07 09:55:26;;;;;;;1.65;0.30;;;33.40;80.00;;;41.34;49.69;101370.16;5015731;28;96758;-72
2021/07/07 09:57:56;;;;;;;0.57;0.10;;;33.40;79.40;;;40.72;51.57;101366.38;5002893;28;96781;-72
2021/07/07 10:00:25;;;;;;;0.10;0.10;;;33.20;79.60;;;39.50;54.22;101366.63;5002864;28;96901;-73
2021/07/07 10:02:55;;;;;;;2.50;0.35;;;33.00;79.80;;;39.08;55.17;101375.75;4988797;28;100332;-73
2021/07/07 10:05:24;;;;;;;17.30;0.60;;;32.80;80.30;;;38.13;57.67;101375.03;5023193;27;97676;-73
2021/07/07 10:07:52;;;;;;;0.15;0.15;;;32.50;81.30;;;38.30;57.99;101372.59;4989986;28;96949;-74
2021/07/07 10:10:22;;;;;;;0.43;0.25;;;32.40;82.30;;;38.04;59.28;101374.28;5001167;28;97570;-73
2021/07/07 10:12:51;;;;;;;0.03;0.03;;;32.40;82.40;;;37.76;59.64;101379.19;5001397;28;98615;-75
2021/07/07 10:15:23;;;;;;;0.47;0.47;;;32.30;82.60;;;37.35;60.51;101378.38;5003963;28;97693;-75
2021/07/07 10:17:53;;;;;;;0.15;0.15;;;32.20;82.30;;;36.91;61.39;101385.50;5003183;28;96822;-74
2021/07/07 10:20:22;;;;;;;10.82;0.38;;;32.00;81.70;;;36.52;62.32;101378.03;5003225;28;97177;-73
2021/07/07 10:22:53;;;;;;;0.80;0.47;;;31.80;82.00;;;36.37;63.00;101388.25;5002759;28;97930;-74
2021/07/07 10:25:27;;;;;;;;;;;31.70;83.20;;;36.38;62.54;101387.00;5006220;28;96915;-75